createdAt,value
2022-08-31T00:00:12.347Z,40.25
2022-08-31T00:02:58.031Z,37.78
2022-08-31T00:05:25.080Z,61.85
2022-08-31T00:07:52.552Z,44.72
2022-08-31T00:10:32.253Z,36.10
2022-08-31T00:13:01.424Z,46.17
2022-08-31T00:15:30.195Z,57.80
2022-08-31T00:17:57.419Z,40.72
2022-08-31T00:20:33.620Z,53.50
2022-08-31T00:23:07.933Z,61.13
2022-08-31T00:25:36.589Z,34.83
2022-08-31T00:28:05.394Z,56.80
2022-08-31T00:30:32.905Z,48.38
2022-08-31T00:32:59.859Z,53.90
2022-08-31T00:35:32.929Z,36.40
2022-08-31T00:38:00.433Z,44.72
2022-08-31T00:40:27.712Z,63.92
2022-08-31T00:42:55.569Z,67.70
2022-08-31T00:45:23.507Z,57.40
2022-08-31T00:47:51.345Z,59.80
2022-08-31T00:50:19.664Z,46.05
2022-08-31T00:52:54.872Z,77.38
2022-08-31T00:55:35.683Z,59.88
2022-08-31T00:58:10.896Z,74.32
2022-08-31T01:00:38.647Z,83.57
2022-08-31T01:03:07.326Z,59.85
2022-08-31T01:05:35.190Z,45.88
2022-08-31T01:08:03.848Z,83.97
2022-08-31T01:10:35.503Z,48.78
2022-08-31T01:15:31.881Z,76.78
2022-08-31T01:18:03.057Z,72.55
2022-08-31T01:20:37.909Z,90.07
2022-08-31T01:23:42.878Z,71.22
2022-08-31T01:26:15.716Z,61.03
2022-08-31T01:28:42.642Z,56.90
2022-08-31T01:31:22.815Z,92.72
2022-08-31T01:33:50.748Z,102.18
2022-08-31T01:36:18.429Z,115.78
2022-08-31T01:38:45.731Z,385.52
2022-08-31T01:41:13.075Z,453.17
2022-08-31T01:43:41.393Z,167.55
2022-08-31T01:46:13.120Z,306.75
2022-08-31T01:48:43.887Z,158.18
2022-08-31T01:51:13.497Z,304.52
2022-08-31T01:53:45.666Z,117.18
2022-08-31T01:56:26.739Z,382.45
2022-08-31T01:58:53.749Z,306.58
2022-08-31T02:01:33.855Z,311.83
2022-08-31T02:04:04.075Z,263.52
2022-08-31T02:06:31.831Z,234.50
2022-08-31T02:08:58.871Z,196.10
2022-08-31T02:11:25.642Z,158.82
2022-08-31T02:13:52.379Z,223.60
2022-08-31T02:16:19.120Z,219.68
2022-08-31T02:18:45.898Z,173.65
2022-08-31T02:21:13.516Z,193.27
2022-08-31T02:23:41.833Z,171.38
2022-08-31T02:26:09.716Z,179.23
2022-08-31T02:28:37.584Z,146.05
2022-08-31T02:31:04.696Z,158.98
2022-08-31T02:33:31.571Z,156.15
2022-08-31T02:35:59.064Z,159.35
2022-08-31T02:38:27.309Z,177.52
2022-08-31T02:40:54.274Z,179.23
2022-08-31T02:43:24.659Z,158.25
2022-08-31T02:45:53.581Z,161.45
2022-08-31T02:48:21.631Z,146.07
2022-08-31T02:50:51.338Z,156.25
2022-08-31T02:53:21.565Z,158.55
2022-08-31T02:55:49.567Z,146.05
2022-08-31T02:58:20.692Z,161.77
2022-08-31T03:00:50.250Z,146.25
2022-08-31T03:03:17.926Z,147.48
2022-08-31T03:05:44.847Z,155.15
2022-08-31T03:08:11.688Z,174.95
2022-08-31T03:10:38.436Z,162.35
2022-08-31T03:13:05.189Z,147.55
2022-08-31T03:15:32.354Z,181.20
2022-08-31T03:17:59.234Z,182.45
2022-08-31T03:20:27.346Z,186.18
2022-08-31T03:22:54.670Z,169.35
2022-08-31T03:25:22.305Z,180.68
2022-08-31T03:27:49.277Z,162.75
2022-08-31T03:30:20.194Z,148.73
2022-08-31T03:32:48.269Z,185.80
2022-08-31T03:35:17.941Z,158.73
2022-08-31T03:37:45.519Z,162.88
2022-08-31T03:40:13.180Z,170.18
2022-08-31T03:42:40.477Z,172.10
2022-08-31T03:45:08.488Z,169.90
2022-08-31T03:47:36.950Z,157.90
2022-08-31T03:50:12.045Z,182.27
2022-08-31T03:52:39.401Z,147.65
2022-08-31T03:55:07.786Z,171.43
2022-08-31T03:57:34.845Z,154.25
2022-08-31T04:00:01.954Z,182.63
2022-08-31T04:02:28.714Z,195.50
2022-08-31T04:04:55.675Z,169.90
2022-08-31T04:07:22.655Z,171.90
2022-08-31T04:09:50.808Z,167.27
2022-08-31T04:12:18.887Z,153.13
2022-08-31T04:14:46.102Z,179.75
2022-08-31T04:17:13.843Z,148.75
2022-08-31T04:19:41.309Z,170.52
2022-08-31T04:22:08.884Z,159.50
2022-08-31T04:24:35.699Z,155.30
2022-08-31T04:27:02.610Z,165.38
2022-08-31T04:29:29.608Z,162.50
2022-08-31T04:31:56.409Z,174.05
2022-08-31T04:34:23.406Z,157.05
2022-08-31T04:36:50.315Z,170.40
2022-08-31T04:39:17.406Z,170.05
2022-08-31T04:41:44.988Z,166.82
2022-08-31T04:44:14.377Z,164.77
2022-08-31T04:46:43.221Z,193.52
2022-08-31T04:49:10.970Z,174.77
2022-08-31T04:51:39.222Z,182.10
2022-08-31T04:54:11.256Z,169.55
2022-08-31T04:56:42.539Z,164.07
2022-08-31T04:59:13.370Z,166.32
2022-08-31T05:01:45.248Z,182.32
2022-08-31T05:04:15.132Z,166.55
2022-08-31T05:06:44.468Z,167.32
2022-08-31T05:09:17.056Z,203.05
2022-08-31T05:11:44.601Z,161.95
2022-08-31T05:14:11.650Z,175.38
2022-08-31T05:16:40.957Z,178.30
2022-08-31T05:19:08.475Z,182.40
2022-08-31T05:21:39.354Z,184.38
2022-08-31T05:24:22.453Z,191.32
2022-08-31T05:26:53.139Z,172.63
2022-08-31T05:29:24.633Z,195.48
2022-08-31T05:31:52.766Z,177.35
2022-08-31T05:34:21.561Z,196.25
2022-08-31T05:59:12.377Z,157.25
2022-08-31T06:01:40.975Z,147.05
2022-08-31T06:04:09.064Z,212.98
2022-08-31T06:06:37.010Z,232.20
2022-08-31T06:09:06.424Z,215.95
2022-08-31T06:11:34.727Z,183.52
2022-08-31T06:14:03.673Z,99.72
2022-08-31T06:16:32.143Z,48.42
2022-08-31T06:18:59.578Z,108.88
2022-08-31T06:21:35.958Z,88.22
2022-08-31T06:24:05.320Z,36.60
2022-08-31T06:26:34.577Z,60.97
2022-08-31T06:29:05.573Z,24.33
2022-08-31T06:31:42.543Z,21.05
2022-08-31T06:34:09.403Z,28.38
2022-08-31T06:36:36.144Z,12.95
2022-08-31T06:39:04.669Z,18.20
2022-08-31T06:41:38.857Z,13.50
2022-08-31T06:44:09.997Z,13.43
2022-08-31T06:46:38.805Z,16.92
2022-08-31T06:49:08.677Z,18.17
2022-08-31T06:51:37.810Z,13.90
2022-08-31T06:54:28.547Z,22.17
2022-08-31T06:57:00.032Z,11.85
2022-08-31T06:59:29.146Z,13.98
2022-08-31T07:01:57.778Z,13.93
2022-08-31T07:04:24.827Z,14.25
2022-08-31T07:06:51.668Z,16.05
2022-08-31T07:09:18.790Z,17.33
2022-08-31T07:11:50.072Z,17.42
2022-08-31T07:19:22.223Z,18.85
2022-08-31T07:21:54.414Z,15.05
2022-08-31T07:24:27.667Z,21.50
2022-08-31T07:26:58.666Z,22.98
2022-08-31T07:29:30.199Z,21.38
2022-08-31T07:31:59.158Z,19.40
2022-08-31T07:34:29.453Z,18.25
2022-08-31T07:37:18.211Z,20.75
2022-08-31T07:40:07.918Z,26.73
2022-08-31T07:42:44.801Z,22.10
2022-08-31T07:45:22.636Z,26.42
2022-08-31T07:47:52.349Z,21.25
2022-08-31T07:50:20.816Z,24.42
2022-08-31T07:52:53.978Z,48.53
2022-08-31T07:55:24.001Z,22.60
2022-08-31T07:57:53.747Z,29.58
2022-08-31T08:00:25.077Z,20.63
2022-08-31T08:05:26.809Z,38.33
2022-08-31T08:08:06.017Z,24.85
2022-08-31T08:10:35.045Z,40.55
2022-08-31T08:13:04.959Z,23.38
2022-08-31T08:15:35.392Z,18.63
2022-08-31T08:18:03.248Z,20.98
2022-08-31T08:20:38.011Z,20.02
2022-08-31T08:23:14.938Z,16.27
2022-08-31T08:25:46.424Z,39.45
2022-08-31T08:31:06.322Z,15.38
2022-08-31T08:33:35.155Z,37.30
2022-08-31T08:36:07.611Z,42.95
2022-08-31T08:38:39.602Z,22.75
2022-08-31T08:41:14.386Z,23.35
2022-08-31T08:43:48.008Z,25.23
2022-08-31T08:46:48.259Z,15.27
2022-08-31T08:49:23.301Z,22.00
2022-08-31T08:51:57.474Z,13.35
2022-08-31T08:54:37.850Z,13.57
2022-08-31T08:57:13.964Z,14.50
2022-08-31T08:59:46.822Z,14.70
2022-08-31T09:03:00.974Z,14.10
2022-08-31T09:06:09.436Z,28.02
2022-08-31T09:09:41.720Z,19.48
2022-08-31T09:12:36.024Z,36.25
2022-08-31T09:15:41.136Z,15.90
2022-08-31T09:18:48.700Z,14.35
2022-08-31T09:21:25.444Z,13.82
2022-08-31T09:24:03.669Z,13.02
2022-08-31T09:26:35.530Z,18.17
2022-08-31T09:29:03.742Z,21.77
2022-08-31T09:31:41.984Z,12.15
2022-08-31T09:34:31.121Z,41.25
2022-08-31T09:37:24.128Z,12.45
2022-08-31T09:39:53.585Z,12.75
2022-08-31T09:42:32.030Z,14.40
2022-08-31T09:45:12.776Z,14.93
2022-08-31T09:47:52.263Z,16.88
2022-08-31T09:50:44.792Z,11.27
2022-08-31T09:53:44.085Z,13.82
2022-08-31T09:56:22.458Z,12.75
2022-08-31T09:59:02.577Z,16.90
2022-08-31T10:01:45.274Z,13.05
2022-08-31T10:04:27.053Z,14.23
2022-08-31T10:07:42.065Z,14.57
2022-08-31T10:10:31.804Z,13.68
2022-08-31T10:13:13.578Z,14.73
2022-08-31T10:15:53.107Z,21.75
2022-08-31T10:18:47.098Z,12.85
2022-08-31T10:21:24.963Z,14.77
2022-08-31T10:24:28.757Z,13.00
2022-08-31T10:27:18.750Z,11.98
2022-08-31T10:29:52.483Z,13.20
2022-08-31T10:32:43.615Z,13.23
2022-08-31T10:38:08.287Z,12.70
2022-08-31T10:40:47.410Z,13.70
2022-08-31T10:43:21.330Z,16.10
2022-08-31T10:45:52.488Z,11.13
2022-08-31T10:48:24.533Z,11.60
2022-08-31T10:51:05.509Z,12.40
2022-08-31T10:56:41.348Z,12.48
2022-08-31T10:59:40.218Z,11.48
2022-08-31T11:02:37.373Z,11.85
2022-08-31T11:05:41.574Z,12.00
2022-08-31T11:08:16.978Z,13.38
2022-08-31T11:10:54.745Z,12.43
2022-08-31T11:13:39.367Z,13.00
2022-08-31T11:16:21.152Z,12.55
2022-08-31T11:19:25.918Z,12.20
2022-08-31T11:21:55.425Z,12.18
2022-08-31T11:25:03.392Z,13.88
2022-08-31T11:27:44.968Z,11.88
2022-08-31T11:30:24.397Z,12.65
2022-08-31T11:33:07.713Z,12.43
2022-08-31T11:35:49.697Z,12.07
2022-08-31T11:39:15.070Z,11.52
2022-08-31T11:41:49.557Z,19.85
2022-08-31T11:44:39.473Z,13.38
2022-08-31T11:47:09.662Z,14.48
2022-08-31T11:49:40.714Z,12.52
2022-08-31T11:52:29.434Z,11.95
2022-08-31T11:55:04.311Z,15.00
2022-08-31T11:57:37.060Z,12.95
2022-08-31T12:00:19.821Z,15.25
2022-08-31T12:03:04.421Z,12.57
2022-08-31T12:05:50.866Z,12.30
2022-08-31T12:08:18.571Z,12.80
2022-08-31T12:10:59.073Z,12.82
2022-08-31T12:13:49.463Z,13.13
2022-08-31T12:16:46.878Z,12.23
2022-08-31T12:19:59.132Z,13.63
2022-08-31T12:23:30.738Z,13.18
2022-08-31T12:26:32.456Z,11.82
2022-08-31T12:29:24.587Z,12.52
2022-08-31T12:32:29.790Z,12.95
2022-08-31T12:35:04.180Z,13.02
2022-08-31T12:37:36.039Z,12.25
2022-08-31T12:40:20.136Z,13.18
2022-08-31T12:43:18.054Z,12.65
2022-08-31T12:46:15.413Z,11.73
2022-08-31T12:49:25.039Z,13.13
2022-08-31T12:52:00.698Z,12.50
2022-08-31T12:54:56.527Z,13.25
2022-08-31T12:57:48.549Z,12.32
2022-08-31T13:00:28.120Z,12.00
2022-08-31T13:03:01.543Z,12.75
2022-08-31T13:05:36.847Z,12.75
2022-08-31T13:08:23.785Z,12.98
2022-08-31T13:10:51.139Z,21.15
2022-08-31T13:13:29.290Z,13.05
2022-08-31T13:16:04.600Z,14.55
2022-08-31T13:18:31.723Z,14.30
2022-08-31T13:21:05.402Z,12.32
2022-08-31T13:23:40.766Z,16.75
2022-08-31T13:26:20.565Z,12.57
2022-08-31T13:28:58.969Z,12.00
2022-08-31T13:31:35.648Z,24.02
2022-08-31T13:34:07.233Z,14.15
2022-08-31T13:36:47.694Z,14.27
2022-08-31T13:39:38.999Z,18.23
2022-08-31T13:42:22.131Z,13.00
2022-08-31T13:45:01.624Z,13.02
2022-08-31T13:47:38.015Z,12.90
2022-08-31T13:50:21.657Z,13.18
2022-08-31T13:53:44.157Z,15.32
2022-08-31T13:55:50.213Z,16.92
2022-08-31T13:58:29.309Z,16.27
2022-08-31T14:01:33.945Z,14.70
2022-08-31T14:04:00.809Z,14.77
2022-08-31T14:06:35.450Z,13.25
2022-08-31T14:09:17.146Z,15.02
2022-08-31T14:11:54.906Z,14.93
2022-08-31T14:14:39.669Z,13.05
2022-08-31T14:17:16.148Z,12.80
2022-08-31T14:19:45.047Z,13.57
2022-08-31T14:22:32.934Z,12.98
2022-08-31T14:25:00.818Z,12.63
2022-08-31T14:27:29.530Z,12.48
2022-08-31T14:29:58.081Z,25.25
2022-08-31T14:32:25.637Z,12.90
2022-08-31T14:34:55.140Z,12.95
2022-08-31T14:37:28.621Z,14.25
2022-08-31T14:40:07.751Z,13.73
2022-08-31T14:42:37.894Z,13.43
2022-08-31T14:45:18.387Z,13.63
2022-08-31T14:47:48.341Z,17.30
2022-08-31T14:50:21.359Z,13.43
2022-08-31T14:52:52.867Z,16.30
2022-08-31T14:55:21.839Z,13.65
2022-08-31T14:57:55.456Z,12.60
2022-08-31T15:00:23.223Z,12.70
2022-08-31T15:02:53.297Z,25.05
2022-08-31T15:05:23.782Z,14.60
2022-08-31T15:07:53.823Z,13.52
2022-08-31T15:10:25.223Z,13.70
2022-08-31T15:12:53.389Z,13.13
2022-08-31T15:15:20.647Z,17.45
2022-08-31T15:17:51.288Z,14.10
2022-08-31T15:20:20.846Z,14.20
2022-08-31T15:22:48.569Z,13.90
2022-08-31T15:25:16.942Z,14.18
2022-08-31T15:27:44.282Z,14.23
2022-08-31T15:30:15.781Z,14.15
2022-08-31T15:32:45.089Z,13.15
2022-08-31T15:35:17.839Z,13.18
2022-08-31T15:37:52.894Z,12.68
2022-08-31T15:40:21.535Z,18.77
2022-08-31T15:42:50.124Z,12.35
2022-08-31T15:45:17.080Z,13.13
2022-08-31T15:48:02.782Z,12.73
2022-08-31T15:50:31.795Z,12.93
2022-08-31T15:53:08.951Z,13.70
2022-08-31T15:55:40.938Z,13.05
2022-08-31T15:58:09.815Z,18.98
2022-08-31T16:00:37.727Z,13.73
2022-08-31T16:03:06.014Z,13.50
2022-08-31T16:05:35.838Z,13.68
2022-08-31T16:08:03.263Z,15.23
2022-08-31T16:10:31.077Z,13.48
2022-08-31T16:12:58.199Z,15.38
2022-08-31T16:15:25.846Z,14.70
2022-08-31T16:17:57.476Z,14.23
2022-08-31T16:20:24.622Z,13.68
2022-08-31T16:22:51.540Z,13.80
2022-08-31T16:25:20.456Z,15.00
2022-08-31T16:27:47.839Z,14.10
2022-08-31T16:30:16.021Z,13.93
2022-08-31T16:32:42.980Z,13.65
2022-08-31T16:35:10.737Z,13.48
2022-08-31T16:37:37.887Z,13.85
2022-08-31T16:40:05.516Z,31.52
2022-08-31T16:42:32.411Z,14.57
2022-08-31T16:45:02.309Z,15.18
2022-08-31T16:47:29.950Z,15.03
2022-08-31T16:49:58.898Z,15.30
2022-08-31T16:52:27.209Z,15.05
2022-08-31T16:54:57.095Z,14.88
2022-08-31T16:57:28.675Z,16.13
2022-08-31T16:59:57.307Z,14.93
2022-08-31T17:02:25.863Z,14.73
2022-08-31T17:04:54.159Z,16.45
2022-08-31T17:07:24.421Z,14.88
2022-08-31T17:09:56.185Z,15.30
2022-08-31T17:12:27.321Z,14.73
2022-08-31T17:17:25.797Z,15.30
2022-08-31T17:19:55.673Z,16.33
2022-08-31T17:22:31.745Z,14.87
2022-08-31T17:25:02.951Z,14.82
2022-08-31T17:27:33.020Z,14.68
2022-08-31T17:30:05.702Z,14.75
2022-08-31T17:32:33.737Z,14.65
2022-08-31T17:35:02.537Z,15.35
2022-08-31T17:37:36.097Z,16.85
2022-08-31T17:40:08.143Z,16.45
2022-08-31T17:42:36.063Z,14.82
2022-08-31T17:45:05.761Z,14.73
2022-08-31T17:47:33.233Z,14.80
2022-08-31T17:50:00.549Z,16.02
2022-08-31T17:52:28.275Z,15.95
2022-08-31T17:54:55.277Z,15.70
2022-08-31T17:57:25.107Z,15.20
2022-08-31T17:59:54.867Z,16.15
2022-08-31T18:02:32.442Z,15.80
2022-08-31T18:05:00.993Z,60.85
2022-08-31T18:07:28.239Z,28.15
2022-08-31T18:09:55.103Z,18.65
2022-08-31T18:12:22.771Z,17.08
2022-08-31T18:14:50.033Z,16.55
2022-08-31T18:17:17.209Z,16.73
2022-08-31T18:19:45.378Z,16.33
2022-08-31T18:22:14.374Z,16.60
2022-08-31T18:24:43.034Z,16.35
2022-08-31T18:27:15.065Z,15.63
2022-08-31T18:29:44.117Z,15.90
2022-08-31T18:32:11.477Z,16.50
2022-08-31T18:34:44.115Z,15.48
2022-08-31T18:37:12.810Z,18.52
2022-08-31T18:40:00.543Z,17.90
2022-08-31T18:42:46.978Z,15.60
2022-08-31T18:45:16.803Z,15.60
2022-08-31T18:48:01.598Z,17.50
2022-08-31T18:50:36.470Z,16.80
2022-08-31T18:53:08.271Z,22.00
2022-08-31T18:55:42.453Z,21.30
2022-08-31T18:58:09.998Z,17.85
2022-08-31T19:00:37.105Z,16.67
2022-08-31T19:03:04.701Z,18.08
2022-08-31T19:05:32.831Z,19.23
2022-08-31T19:08:00.369Z,18.73
2022-08-31T19:10:28.100Z,23.55
2022-08-31T19:12:55.734Z,17.67
2022-08-31T19:15:25.440Z,17.35
2022-08-31T19:17:59.500Z,16.75
2022-08-31T19:20:29.299Z,16.92
2022-08-31T19:22:56.676Z,17.90
2022-08-31T19:25:24.527Z,31.05
2022-08-31T19:27:52.538Z,20.48
2022-08-31T19:30:25.829Z,17.08
2022-08-31T19:32:54.444Z,15.95
2022-08-31T19:35:21.327Z,17.17
2022-08-31T19:37:51.734Z,17.90
2022-08-31T19:40:19.350Z,16.40
2022-08-31T19:45:44.870Z,17.48
2022-08-31T19:48:13.053Z,17.33
2022-08-31T19:50:42.217Z,21.15
2022-08-31T19:53:13.477Z,17.13
2022-08-31T19:58:26.190Z,18.00
2022-08-31T20:01:00.744Z,26.75
2022-08-31T20:03:30.519Z,29.15
2022-08-31T20:05:59.448Z,17.55
2022-08-31T20:08:26.303Z,16.20
2022-08-31T20:10:53.136Z,25.65
2022-08-31T20:13:22.848Z,18.25
2022-08-31T20:15:50.955Z,23.75
2022-08-31T20:18:17.959Z,17.85
2022-08-31T20:20:48.192Z,19.83
2022-08-31T20:23:18.762Z,17.73
2022-08-31T20:25:49.295Z,20.60
2022-08-31T20:28:17.749Z,30.55
2022-08-31T20:30:45.185Z,17.83
2022-08-31T20:33:12.274Z,24.73
2022-08-31T20:35:47.441Z,37.28
2022-08-31T20:38:16.682Z,16.17
2022-08-31T20:40:47.375Z,16.98
2022-08-31T20:43:14.998Z,16.97
2022-08-31T20:45:42.197Z,17.20
2022-08-31T20:48:27.997Z,18.30
2022-08-31T20:50:55.778Z,20.85
2022-08-31T20:53:42.498Z,19.13
2022-08-31T20:56:16.985Z,42.70
2022-08-31T20:58:45.784Z,21.25
2022-08-31T21:01:13.782Z,22.35
2022-08-31T21:03:40.818Z,18.13
2022-08-31T21:06:11.499Z,17.58
2022-08-31T21:08:42.390Z,19.42
2022-08-31T21:11:12.320Z,18.58
2022-08-31T21:13:39.153Z,17.73
2022-08-31T21:16:06.135Z,43.90
2022-08-31T21:18:34.718Z,41.22
2022-08-31T21:21:17.463Z,77.28
2022-08-31T21:23:45.862Z,18.23
2022-08-31T21:26:24.326Z,19.20
2022-08-31T21:28:52.796Z,51.95
2022-08-31T21:31:29.285Z,60.55
2022-08-31T21:34:02.911Z,36.38
2022-08-31T21:36:33.088Z,37.67
2022-08-31T21:39:00.741Z,42.40
2022-08-31T21:41:29.237Z,67.95
2022-08-31T21:43:58.638Z,103.38
2022-08-31T21:46:28.614Z,86.05
2022-08-31T21:48:58.592Z,89.25
2022-08-31T21:51:33.110Z,88.45
2022-08-31T21:54:06.866Z,90.22
2022-08-31T21:56:44.383Z,68.25
2022-08-31T21:59:14.541Z,110.13
2022-08-31T22:01:42.374Z,87.90
2022-08-31T22:04:10.150Z,92.80
2022-08-31T22:06:38.527Z,95.70
2022-08-31T22:09:09.890Z,104.25
2022-08-31T22:11:41.501Z,81.00
2022-08-31T22:16:40.708Z,132.30
2022-08-31T22:19:13.164Z,117.57
2022-08-31T22:21:48.357Z,130.27
2022-08-31T22:24:27.487Z,191.25
2022-08-31T22:26:57.700Z,158.07
2022-08-31T22:29:29.591Z,163.70
2022-08-31T22:32:03.066Z,169.55
2022-08-31T22:34:29.910Z,168.77
2022-08-31T22:36:57.470Z,191.25
2022-08-31T22:39:29.189Z,129.85
2022-08-31T22:44:29.326Z,213.82
2022-08-31T22:46:56.973Z,192.57
2022-08-31T22:49:25.739Z,224.27
2022-08-31T22:51:54.313Z,185.48
2022-08-31T22:54:22.830Z,185.20
2022-08-31T22:56:51.175Z,187.70
2022-08-31T22:59:27.076Z,176.07
2022-08-31T23:02:03.345Z,162.77
2022-08-31T23:04:33.446Z,180.57
2022-08-31T23:07:01.598Z,170.45
2022-08-31T23:09:30.808Z,185.50
2022-08-31T23:12:00.717Z,200.63
2022-08-31T23:14:29.243Z,187.07
2022-08-31T23:17:00.847Z,169.80
2022-08-31T23:19:54.225Z,186.57
2022-08-31T23:22:21.998Z,214.15
2022-08-31T23:24:51.710Z,168.32
2022-08-31T23:27:21.762Z,153.18
2022-08-31T23:29:56.455Z,182.52
2022-08-31T23:32:27.656Z,156.77
2022-08-31T23:34:58.167Z,187.77
2022-08-31T23:37:27.266Z,145.07
2022-08-31T23:39:55.898Z,136.38
2022-08-31T23:42:26.184Z,156.23
2022-08-31T23:44:53.951Z,191.88
2022-08-31T23:47:28.935Z,162.27
2022-08-31T23:49:57.900Z,153.15
2022-08-31T23:52:28.349Z,144.60
2022-08-31T23:54:58.037Z,173.82
2022-08-31T23:57:32.087Z,127.55
